Caledonia, Illinois
Current Conditions -  °F | °C
As of 1:54 PM on Sunday 25 Jan 2015 (Local Time) from KRFD Reporting Station
Overcast Overcast  
Wind Chill: 14°   Ceiling: 4500
Heat Index: 28°   Visibility: 10mi
Dew Point: 16°   Wind: 22mph
Humidity: 61%   Direction: 40°NE
Pressure: 29.89"   Gusts: NA
Location:  42.37°N, 88.89°W
Report Text: KRFD 251954Z 04019KT 10SM OVC045 M02/M09 A2989 RMK AO2 PK WND 03029/1939 SLP129 T10221089
Loading
Personal Weather Stations






























Interactive Weather Map New forecast layout! Learn more

10-Day Weather Forecast

Advertisements
Track Severe Weather on mobile